Camden, SC

11:40 AM EDT on August 18, 2017 (GMT -0400)
Woodward

Weather History for KCDN - September, 2013

Change the Weather History Date:

Sunday, September 22, 2013

  Actual Average (KSSC) Record (KSSC)
Temperature  
Mean Temperature 72 °F -  
Max Temperature 82 °F 79 °F 96 °F (2001)
Min Temperature 62 °F 60 °F 51 °F (1999)
Cooling Degree Days 7    
Growing Degree Days 22 (Base 50)    
Moisture  
Dew Point 62 °F    
Average Humidity 75    
Maximum Humidity 100    
Minimum Humidity 42    
Precipitation  
Precipitation 0.00 in - - ()
Sea Level Pressure  
Sea Level Pressure 29.80 in    
Wind  
Wind Speed 8 mph (NNW)    
Max Wind Speed 14 mph    
Max Gust Speed 23 mph    
Visibility 10 miles    
Events      
Averages and records for this station are not official NWS values.
T = Trace of Precipitation, MM = Missing Value Source: NWS Daily Summary

Daily Weather History Graph

Daily Weather History Graph

Search for Another Location

Airport or City:

Trip Planner

Search our weather history database for the weather conditions in past years. The results will help you decide how hot, cold, wet, or windy it might be!

Date:

Astronomy

Sep. 22, 2013 Rise Set
Actual Time 7:10 AM EDT 7:18 PM EDT
Civil Twilight 6:45 AM EDT 7:43 PM EDT
Nautical Twilight 6:16 AM EDT 8:12 PM EDT
Astronomical Twilight 5:46 AM EDT 8:42 PM EDT
Moon 9:18 PM EDT (9/22) 10:18 AM EDT (9/22)
Length of Visible Light 12h 58m
Length of Day
12h 08m
Waning Gibbous, 89% of the Moon is Illuminated
Sep 22
Waning Gibbous
Sep 26
Last Quarter
Oct 4
New
Oct 11
First Quarter
Oct 18
Full

Hourly Weather History & Observations

Time (EDT) Temp. Heat Index Dew Point Humidity Pressure Visibility Wind Dir Wind Speed Gust Speed Precip Events Conditions
12:15 AM 73.4 °F - 73.4 °F 100% 29.70 in 4.0 mi SSW 8.1 mph - 0.00 in   Overcast
12:35 AM 73.4 °F - 73.4 °F 100% 29.71 in 5.0 mi SW 9.2 mph - 0.00 in   Overcast
12:55 AM 71.6 °F - 71.6 °F 100% 29.70 in 7.0 mi SSW 9.2 mph - 0.00 in   Overcast
1:15 AM 71.6 °F - 71.6 °F 100% 29.70 in 3.0 mi SW 11.5 mph 17.3 mph 0.00 in   Overcast
1:35 AM 71.6 °F - 71.6 °F 100% 29.70 in 10.0 mi WSW 11.5 mph 16.1 mph 0.00 in   Overcast
1:55 AM 69.8 °F - 69.8 °F 100% 29.71 in 10.0 mi West 10.4 mph 18.4 mph 0.00 in   Overcast
2:15 AM 69.8 °F - 69.8 °F 100% 29.71 in 10.0 mi WSW 11.5 mph 16.1 mph 0.00 in   Overcast
2:35 AM 69.8 °F - 68.0 °F 94% 29.71 in 10.0 mi West 10.4 mph - 0.00 in   Overcast
2:55 AM 69.8 °F - 68.0 °F 94% 29.71 in 10.0 mi WNW 12.7 mph 16.1 mph 0.00 in   Overcast
3:15 AM 68.0 °F - 66.2 °F 94% 29.71 in 10.0 mi NW 13.8 mph 18.4 mph 0.00 in   Overcast
3:35 AM 66.2 °F - 66.2 °F 100% 29.72 in 10.0 mi NW 10.4 mph - 0.00 in   Overcast
3:55 AM 66.2 °F - 64.4 °F 94% 29.72 in 10.0 mi WNW 11.5 mph - 0.00 in   Mostly Cloudy
4:15 AM 66.2 °F - 64.4 °F 94% 29.73 in 10.0 mi NW 8.1 mph - 0.00 in   Mostly Cloudy
4:35 AM 66.2 °F - 64.4 °F 94% 29.73 in 10.0 mi NNW 9.2 mph - 0.00 in   Overcast
4:55 AM 66.2 °F - 64.4 °F 94% 29.74 in 10.0 mi NNW 8.1 mph - 0.00 in   Overcast
5:15 AM 66.2 °F - 62.6 °F 88% 29.74 in 10.0 mi NNW 6.9 mph - 0.00 in   Overcast
5:35 AM 66.2 °F - 62.6 °F 88% 29.75 in 10.0 mi NNW 6.9 mph - 0.00 in   Overcast
5:55 AM 64.4 °F - 62.6 °F 94% 29.76 in 10.0 mi NNW 3.5 mph - 0.00 in   Mostly Cloudy
6:15 AM 64.4 °F - 62.6 °F 94% 29.76 in 10.0 mi Calm Calm - 0.00 in   Partly Cloudy
6:35 AM 64.4 °F - 64.4 °F 100% 29.77 in 10.0 mi West 4.6 mph - 0.00 in   Clear
6:55 AM 64.4 °F - 64.4 °F 100% 29.77 in 9.0 mi West 3.5 mph - 0.00 in   Clear
7:15 AM 62.6 °F - 62.6 °F 100% 29.78 in 7.0 mi West 3.5 mph - 0.00 in   Clear
7:35 AM 62.6 °F - 62.6 °F 100% 29.78 in 6.0 mi West 3.5 mph - 0.00 in   Clear
7:55 AM 62.6 °F - 62.6 °F 100% 29.79 in 6.0 mi WNW 3.5 mph - 0.00 in   Clear
8:15 AM 62.6 °F - 62.6 °F 100% 29.80 in 8.0 mi WNW 3.5 mph - 0.00 in   Clear
8:35 AM 64.4 °F - 62.6 °F 94% 29.80 in 10.0 mi NW 4.6 mph - 0.00 in   Clear
8:55 AM 64.4 °F - 62.6 °F 94% 29.81 in 10.0 mi NW 4.6 mph - 0.00 in   Clear
9:15 AM 66.2 °F - 62.6 °F 88% 29.81 in 10.0 mi North 9.2 mph - 0.00 in   Clear
9:35 AM 69.8 °F - 60.8 °F 73% 29.81 in 10.0 mi North 10.4 mph 20.7 mph 0.00 in   Clear
9:55 AM 71.6 °F - 60.8 °F 69% 29.82 in 10.0 mi North 13.8 mph 18.4 mph 0.00 in   Clear
10:15 AM 71.6 °F - 60.8 °F 69% 29.82 in 10.0 mi North 13.8 mph - 0.00 in   Clear
10:35 AM 71.6 °F - 60.8 °F 69% 29.83 in 10.0 mi NNE 9.2 mph 23.0 mph 0.00 in   Clear
10:55 AM 73.4 °F - 60.8 °F 65% 29.83 in 10.0 mi NNE 11.5 mph 18.4 mph 0.00 in   Clear
11:15 AM 73.4 °F - 60.8 °F 65% 29.83 in 10.0 mi NNE 10.4 mph 18.4 mph 0.00 in   Clear
11:35 AM 75.2 °F - 60.8 °F 61% 29.82 in 10.0 mi NNE 11.5 mph 21.9 mph 0.00 in   Clear
11:55 AM 75.2 °F - 60.8 °F 61% 29.82 in 10.0 mi North 9.2 mph 20.7 mph 0.00 in   Clear
12:15 PM 75.2 °F - 60.8 °F 61% 29.82 in 10.0 mi North 13.8 mph - 0.00 in   Clear
12:35 PM 78.8 °F - 60.8 °F 54% 29.83 in 10.0 mi North 8.1 mph - 0.00 in   Clear
12:55 PM 78.8 °F - 60.8 °F 54% 29.82 in 10.0 mi North 8.1 mph - 0.00 in   Partly Cloudy
1:15 PM 78.8 °F - 60.8 °F 54% 29.82 in 10.0 mi NE 9.2 mph - 0.00 in   Partly Cloudy
1:35 PM 78.8 °F - 60.8 °F 54% 29.82 in 10.0 mi NNE 6.9 mph 17.3 mph 0.00 in   Clear
1:55 PM 78.8 °F - 60.8 °F 54% 29.81 in 10.0 mi NNW 5.8 mph - 0.00 in   Clear
2:15 PM 80.6 °F 81.5 °F 60.8 °F 51% 29.80 in 10.0 mi North 6.9 mph - 0.00 in   Clear
2:35 PM 80.6 °F 81.5 °F 60.8 °F 51% 29.79 in 10.0 mi NNW 6.9 mph - 0.00 in   Clear
2:55 PM 80.6 °F 81.5 °F 60.8 °F 51% 29.79 in 10.0 mi North 9.2 mph - 0.00 in   Clear
3:15 PM 80.6 °F 81.5 °F 60.8 °F 51% 29.79 in 10.0 mi NW 9.2 mph - 0.00 in   Clear
3:35 PM 82.4 °F 82.9 °F 60.8 °F 48% 29.79 in 10.0 mi North 3.5 mph - 0.00 in   Clear
3:55 PM 82.4 °F 82.5 °F 59.0 °F 45% 29.79 in 10.0 mi NE 8.1 mph - 0.00 in   Clear
4:15 PM 82.4 °F 82.9 °F 60.8 °F 48% 29.79 in 10.0 mi North 11.5 mph 16.1 mph 0.00 in   Clear
4:35 PM 80.6 °F 81.5 °F 60.8 °F 51% 29.79 in 10.0 mi WNW 6.9 mph - 0.00 in   Clear
4:55 PM 82.4 °F 82.0 °F 57.2 °F 42% 29.80 in 10.0 mi NNW 9.2 mph - 0.00 in   Clear
5:15 PM 80.6 °F 81.1 °F 59.0 °F 48% 29.80 in 10.0 mi NNW 5.8 mph - 0.00 in   Clear
5:35 PM 80.6 °F 81.1 °F 59.0 °F 48% 29.80 in 10.0 mi NW 9.2 mph - 0.00 in   Clear
5:55 PM 80.6 °F 81.1 °F 59.0 °F 48% 29.81 in 10.0 mi North 8.1 mph - 0.00 in   Clear
6:15 PM 80.6 °F 80.8 °F 57.2 °F 45% 29.81 in 10.0 mi North 4.6 mph - 0.00 in   Clear
6:35 PM 78.8 °F - 59.0 °F 51% 29.82 in 10.0 mi North 6.9 mph - 0.00 in   Clear
6:55 PM 78.8 °F - 60.8 °F 54% 29.82 in 10.0 mi North 5.8 mph - 0.00 in   Clear
7:15 PM 75.2 °F - 60.8 °F 61% 29.82 in 9.0 mi North 4.6 mph - 0.00 in   Clear
7:35 PM 73.4 °F - 60.8 °F 65% 29.83 in 10.0 mi North 3.5 mph - 0.00 in   Clear
7:55 PM 73.4 °F - 59.0 °F 61% 29.83 in 10.0 mi North 3.5 mph - 0.00 in   Clear
8:15 PM 71.6 °F - 60.8 °F 69% 29.84 in 10.0 mi North 4.6 mph - 0.00 in   Clear
8:35 PM 69.8 °F - 60.8 °F 73% 29.85 in 10.0 mi Calm Calm - 0.00 in   Clear
8:55 PM 69.8 °F - 60.8 °F 73% 29.86 in 10.0 mi Calm Calm - 0.00 in   Clear
9:15 PM 68.0 °F - 60.8 °F 78% 29.87 in 10.0 mi Calm Calm - 0.00 in   Clear
9:35 PM 66.2 °F - 60.8 °F 83% 29.88 in 10.0 mi Calm Calm - 0.00 in   Clear
9:55 PM 68.0 °F - 59.0 °F 73% 29.89 in 10.0 mi Calm Calm - 0.00 in   Clear
10:15 PM 68.0 °F - 59.0 °F 73% 29.89 in 10.0 mi Calm Calm - 0.00 in   Clear
10:35 PM 66.2 °F - 59.0 °F 78% 29.90 in 10.0 mi Calm Calm - 0.00 in   Clear
10:55 PM 64.4 °F - 59.0 °F 83% 29.90 in 10.0 mi Calm Calm - 0.00 in   Clear
11:15 PM 64.4 °F - 59.0 °F 83% 29.91 in 10.0 mi Calm Calm - 0.00 in   Clear
11:35 PM 64.4 °F - 59.0 °F 83% 29.91 in 10.0 mi Calm Calm - 0.00 in   Clear
11:55 PM 62.6 °F - 59.0 °F 88% 29.91 in 10.0 mi Calm Calm - 0.00 in   Clear